Jim Hamilton L.B. Owens Airport
KCUB : now visible

Airfield :











YOU CAN JOIN US ON...

 
LOGIN :

Register | Disclaimer

   EN    FR    IT 

 









Legend :    VFR   Marginal VFR   IFR   Intensive IFR   Very Intensive IFR
Visi :
Ceiling :
>= 8 km
>= 3000ft
5 to 8 km
1000 to 3000 ft
1500m to 5 km
500 to 1000 ft
800 to 1500m
200 to 500 ft
< 800m
< 200 ft
Symbols :   Thunderstorms  Fog  Heavy snow  Heavy precipitations  Wind > 20 kt






- Airport Elevation : 193 ft


KCUB - Jim Hamilton L.B. Owens

CURRENT METAR :
  • 220150Z AUTO 02008KT 7SM UP OVC016 M01/M03 A3035 RMK AO2 UPB46FZRAE46 P0001 I1001 $

EXPIRED METARs :
  • 220108Z AUTO VRB03KT 4SM -FZRA BR BKN012 OVC038 M01/M03 A3035 RMK AO2 P0000 I1001 T10061028 $
  • 220053Z AUTO 05005KT 5SM -FZRA BR FEW014 OVC037 M01/M03 A3035 RMK AO2 SLP278 P0002 I1001 T10061028 $
  • 212353Z AUTO 07003KT 6SM -FZRA BKN039 OVC047 00/M03 A3035 RMK AO2 UPB2259E21FZRAE2259B21 SLP277 P0002 60006 I1001 I6/// T00001028 10017 20000 53010 $
  • 212327Z AUTO VRB03KT 7SM -FZRA BKN037 OVC047 00/M03 A3034 RMK AO2 UPB2259E21FZRAE2259B21 P0000 I1000 T00001028 $
  • 212305Z AUTO 05003KT 9SM UP FEW029 OVC036 00/M03 A3034 RMK AO2 UPB2259FZRAE2259 P0000 I1000 T00001028 $
  • 212253Z AUTO VRB06KT 8SM -FZRA SCT029 OVC034 00/M03 A3033 RMK AO2 UPE23FZRAB23 SLP270 P0002 I1001 T00001028 $

TAF KCUB
Valid from the 22 at 00:00 until the 23 at 00:00 UTC


212320Z 2200/2224 03008KT 4SM -FZRAPL OVC012
FM220200 02007KT 1 1/2SM -SN OVC007
FM220600 01006KT P6SM OVC015
FM221400 01005KT P6SM SCT025
KZJX FIR / North America



MET'MAP, your aeronautical weather chart ! - Copyright ORBIFLY December 2007 - Disclaimer

ORBIFLY MET'MAP TEAM :

Programming & Development : Alexandra Zaïnal
Concept & original design : Baudouin d'Aumeries
Assistance for programming : Marc-Olivier Méhu
Technical & hardware support : Manuel Goepfert

Contact : metmap@orbifly.com




SOURCES & CREDITS :

   NOAA       Earth
Advisory